sensor_id;sensor_type;location;lat;lon;timestamp;temperature;humidity
44223;DHT22;29895;48.804;9.386;2023-05-07T00:01:31;13.10;99.90
44223;DHT22;29895;48.804;9.386;2023-05-07T00:03:57;13.10;99.90
44223;DHT22;29895;48.804;9.386;2023-05-07T00:06:22;13.10;99.90
44223;DHT22;29895;48.804;9.386;2023-05-07T00:08:48;13.10;99.90
44223;DHT22;29895;48.804;9.386;2023-05-07T00:11:14;13.10;99.90
44223;DHT22;29895;48.804;9.386;2023-05-07T00:13:40;13.10;99.90
44223;DHT22;29895;48.804;9.386;2023-05-07T00:16:05;13.10;99.90
44223;DHT22;29895;48.804;9.386;2023-05-07T00:18:31;13.00;99.90
44223;DHT22;29895;48.804;9.386;2023-05-07T00:20:57;13.00;99.90
44223;DHT22;29895;48.804;9.386;2023-05-07T00:23:23;12.90;99.90
44223;DHT22;29895;48.804;9.386;2023-05-07T00:25:48;12.90;99.90
44223;DHT22;29895;48.804;9.386;2023-05-07T00:28:14;12.90;99.90
44223;DHT22;29895;48.804;9.386;2023-05-07T00:30:40;12.90;99.90
44223;DHT22;29895;48.804;9.386;2023-05-07T00:33:05;12.90;99.90
44223;DHT22;29895;48.804;9.386;2023-05-07T00:35:31;12.80;99.90
44223;DHT22;29895;48.804;9.386;2023-05-07T00:37:57;12.90;99.90
44223;DHT22;29895;48.804;9.386;2023-05-07T00:40:22;12.80;99.90
44223;DHT22;29895;48.804;9.386;2023-05-07T00:42:48;12.80;99.90
44223;DHT22;29895;48.804;9.386;2023-05-07T00:45:15;12.80;99.90
44223;DHT22;29895;48.804;9.386;2023-05-07T00:47:41;12.80;99.90
44223;DHT22;29895;48.804;9.386;2023-05-07T00:50:08;12.80;99.90
44223;DHT22;29895;48.804;9.386;2023-05-07T00:52:37;12.80;99.90
44223;DHT22;29895;48.804;9.386;2023-05-07T00:55:05;12.70;99.90
44223;DHT22;29895;48.804;9.386;2023-05-07T00:57:37;12.70;99.90
44223;DHT22;29895;48.804;9.386;2023-05-07T01:00:04;12.70;99.90
44223;DHT22;29895;48.804;9.386;2023-05-07T01:02:30;12.60;99.90
44223;DHT22;29895;48.804;9.386;2023-05-07T01:04:56;12.60;99.90
44223;DHT22;29895;48.804;9.386;2023-05-07T01:07:23;12.60;99.90
44223;DHT22;29895;48.804;9.386;2023-05-07T01:09:49;12.50;99.90
44223;DHT22;29895;48.804;9.386;2023-05-07T01:12:15;12.50;99.90
44223;DHT22;29895;48.804;9.386;2023-05-07T01:14:41;12.60;99.90
44223;DHT22;29895;48.804;9.386;2023-05-07T01:17:07;12.50;99.90
44223;DHT22;29895;48.804;9.386;2023-05-07T01:19:33;12.50;99.90
44223;DHT22;29895;48.804;9.386;2023-05-07T01:22:10;12.50;99.90
44223;DHT22;29895;48.804;9.386;2023-05-07T01:24:40;12.40;99.90
44223;DHT22;29895;48.804;9.386;2023-05-07T01:27:06;12.40;99.90
44223;DHT22;29895;48.804;9.386;2023-05-07T01:29:32;12.30;99.90
44223;DHT22;29895;48.804;9.386;2023-05-07T01:32:00;12.30;99.90
44223;DHT22;29895;48.804;9.386;2023-05-07T01:34:30;12.40;99.90
44223;DHT22;29895;48.804;9.386;2023-05-07T01:36:58;12.30;99.90
44223;DHT22;29895;48.804;9.386;2023-05-07T01:39:29;12.40;99.90
44223;DHT22;29895;48.804;9.386;2023-05-07T01:41:56;12.40;99.90
44223;DHT22;29895;48.804;9.386;2023-05-07T01:44:22;12.40;99.90
44223;DHT22;29895;48.804;9.386;2023-05-07T01:46:49;12.40;99.90
44223;DHT22;29895;48.804;9.386;2023-05-07T01:49:15;12.40;99.90
44223;DHT22;29895;48.804;9.386;2023-05-07T01:51:41;12.40;99.90
44223;DHT22;29895;48.804;9.386;2023-05-07T01:54:07;12.40;99.90
44223;DHT22;29895;48.804;9.386;2023-05-07T01:56:33;12.30;99.90
44223;DHT22;29895;48.804;9.386;2023-05-07T01:58:59;12.30;99.90
44223;DHT22;29895;48.804;9.386;2023-05-07T02:01:31;12.30;99.90
44223;DHT22;29895;48.804;9.386;2023-05-07T02:04:12;12.20;99.90
44223;DHT22;29895;48.804;9.386;2023-05-07T02:06:52;12.20;99.90
44223;DHT22;29895;48.804;9.386;2023-05-07T02:09:21;12.20;99.90
44223;DHT22;29895;48.804;9.386;2023-05-07T02:11:48;12.20;99.90
44223;DHT22;29895;48.804;9.386;2023-05-07T02:14:13;12.10;99.90
44223;DHT22;29895;48.804;9.386;2023-05-07T02:16:47;12.10;99.90
44223;DHT22;29895;48.804;9.386;2023-05-07T02:19:13;12.10;99.90
44223;DHT22;29895;48.804;9.386;2023-05-07T02:21:39;12.00;99.90
44223;DHT22;29895;48.804;9.386;2023-05-07T02:24:05;12.00;99.90
44223;DHT22;29895;48.804;9.386;2023-05-07T02:26:30;12.10;99.90
44223;DHT22;29895;48.804;9.386;2023-05-07T02:28:56;12.10;99.90
44223;DHT22;29895;48.804;9.386;2023-05-07T02:31:22;12.00;99.90
44223;DHT22;29895;48.804;9.386;2023-05-07T02:33:48;12.00;99.90
44223;DHT22;29895;48.804;9.386;2023-05-07T02:36:13;11.90;99.90
44223;DHT22;29895;48.804;9.386;2023-05-07T02:38:39;11.80;99.90
44223;DHT22;29895;48.804;9.386;2023-05-07T02:41:05;11.70;99.90
44223;DHT22;29895;48.804;9.386;2023-05-07T02:43:30;11.80;99.90
44223;DHT22;29895;48.804;9.386;2023-05-07T02:46:03;11.70;99.90
44223;DHT22;29895;48.804;9.386;2023-05-07T02:48:29;11.60;99.90
44223;DHT22;29895;48.804;9.386;2023-05-07T02:50:54;11.60;99.90
44223;DHT22;29895;48.804;9.386;2023-05-07T02:53:20;11.50;99.90
44223;DHT22;29895;48.804;9.386;2023-05-07T02:55:46;11.50;99.90
44223;DHT22;29895;48.804;9.386;2023-05-07T02:58:12;11.50;99.90
44223;DHT22;29895;48.804;9.386;2023-05-07T03:00:37;11.40;99.90
44223;DHT22;29895;48.804;9.386;2023-05-07T03:03:03;11.40;99.90
44223;DHT22;29895;48.804;9.386;2023-05-07T03:05:28;11.30;99.90
44223;DHT22;29895;48.804;9.386;2023-05-07T03:07:54;11.30;99.90
44223;DHT22;29895;48.804;9.386;2023-05-07T03:10:20;11.20;99.90
44223;DHT22;29895;48.804;9.386;2023-05-07T03:12:45;11.20;99.90
44223;DHT22;29895;48.804;9.386;2023-05-07T03:15:11;11.20;99.90
44223;DHT22;29895;48.804;9.386;2023-05-07T03:17:38;11.10;99.90
44223;DHT22;29895;48.804;9.386;2023-05-07T03:20:07;11.00;99.90
44223;DHT22;29895;48.804;9.386;2023-05-07T03:22:34;11.10;99.90
44223;DHT22;29895;48.804;9.386;2023-05-07T03:25:00;11.10;99.90
44223;DHT22;29895;48.804;9.386;2023-05-07T03:27:26;11.10;99.90
44223;DHT22;29895;48.804;9.386;2023-05-07T03:29:51;11.10;99.90
44223;DHT22;29895;48.804;9.386;2023-05-07T03:32:17;11.00;99.90
44223;DHT22;29895;48.804;9.386;2023-05-07T03:34:43;11.00;99.90
44223;DHT22;29895;48.804;9.386;2023-05-07T03:37:08;11.00;99.90
44223;DHT22;29895;48.804;9.386;2023-05-07T03:39:34;11.00;99.90
44223;DHT22;29895;48.804;9.386;2023-05-07T03:42:00;10.90;99.90
44223;DHT22;29895;48.804;9.386;2023-05-07T03:44:26;10.90;99.90
44223;DHT22;29895;48.804;9.386;2023-05-07T03:46:52;10.90;99.90
44223;DHT22;29895;48.804;9.386;2023-05-07T03:49:17;10.90;99.90
44223;DHT22;29895;48.804;9.386;2023-05-07T03:51:43;10.90;99.90
44223;DHT22;29895;48.804;9.386;2023-05-07T03:54:09;10.90;99.90
44223;DHT22;29895;48.804;9.386;2023-05-07T03:56:34;10.90;99.90
44223;DHT22;29895;48.804;9.386;2023-05-07T03:59:01;10.80;99.90
44223;DHT22;29895;48.804;9.386;2023-05-07T04:01:26;10.90;99.90
44223;DHT22;29895;48.804;9.386;2023-05-07T04:03:52;10.90;99.90
44223;DHT22;29895;48.804;9.386;2023-05-07T04:06:18;10.90;99.90
44223;DHT22;29895;48.804;9.386;2023-05-07T04:08:44;10.90;99.90
44223;DHT22;29895;48.804;9.386;2023-05-07T04:11:09;10.90;99.90
44223;DHT22;29895;48.804;9.386;2023-05-07T04:13:35;10.90;99.90
44223;DHT22;29895;48.804;9.386;2023-05-07T04:16:06;10.90;99.90
44223;DHT22;29895;48.804;9.386;2023-05-07T04:18:32;10.90;99.90
44223;DHT22;29895;48.804;9.386;2023-05-07T04:20:57;10.90;99.90
44223;DHT22;29895;48.804;9.386;2023-05-07T04:23:23;10.80;99.90
44223;DHT22;29895;48.804;9.386;2023-05-07T04:25:48;10.90;99.90
44223;DHT22;29895;48.804;9.386;2023-05-07T04:28:15;10.90;99.90
44223;DHT22;29895;48.804;9.386;2023-05-07T04:30:41;10.90;99.90
44223;DHT22;29895;48.804;9.386;2023-05-07T04:33:07;11.00;99.90
44223;DHT22;29895;48.804;9.386;2023-05-07T04:35:33;11.10;99.90
44223;DHT22;29895;48.804;9.386;2023-05-07T04:37:59;11.20;99.90
44223;DHT22;29895;48.804;9.386;2023-05-07T04:40:24;11.20;99.90
44223;DHT22;29895;48.804;9.386;2023-05-07T04:42:50;11.30;99.90
44223;DHT22;29895;48.804;9.386;2023-05-07T04:45:16;11.50;99.90
44223;DHT22;29895;48.804;9.386;2023-05-07T04:47:42;11.50;99.90
44223;DHT22;29895;48.804;9.386;2023-05-07T04:50:08;11.80;99.90
44223;DHT22;29895;48.804;9.386;2023-05-07T04:52:34;12.20;99.90
44223;DHT22;29895;48.804;9.386;2023-05-07T04:55:00;12.60;99.90
44223;DHT22;29895;48.804;9.386;2023-05-07T04:57:26;13.00;99.90
44223;DHT22;29895;48.804;9.386;2023-05-07T04:59:53;13.20;99.90
44223;DHT22;29895;48.804;9.386;2023-05-07T05:02:18;13.30;99.90
44223;DHT22;29895;48.804;9.386;2023-05-07T05:04:44;13.10;99.90
44223;DHT22;29895;48.804;9.386;2023-05-07T05:07:10;13.00;99.90
44223;DHT22;29895;48.804;9.386;2023-05-07T05:09:35;12.90;99.90
44223;DHT22;29895;48.804;9.386;2023-05-07T05:12:01;12.80;99.90
44223;DHT22;29895;48.804;9.386;2023-05-07T05:14:27;12.70;99.90
44223;DHT22;29895;48.804;9.386;2023-05-07T05:16:52;12.80;99.90
44223;DHT22;29895;48.804;9.386;2023-05-07T05:19:18;12.80;99.90
44223;DHT22;29895;48.804;9.386;2023-05-07T05:21:44;12.80;99.90
44223;DHT22;29895;48.804;9.386;2023-05-07T05:24:09;12.80;99.90
44223;DHT22;29895;48.804;9.386;2023-05-07T05:26:35;12.80;99.90
44223;DHT22;29895;48.804;9.386;2023-05-07T05:29:01;12.80;99.90
44223;DHT22;29895;48.804;9.386;2023-05-07T05:31:26;12.80;99.90
44223;DHT22;29895;48.804;9.386;2023-05-07T05:33:52;12.70;99.90
44223;DHT22;29895;48.804;9.386;2023-05-07T05:36:18;12.60;99.90
44223;DHT22;29895;48.804;9.386;2023-05-07T05:38:43;12.90;99.90
44223;DHT22;29895;48.804;9.386;2023-05-07T05:41:10;13.30;99.90
44223;DHT22;29895;48.804;9.386;2023-05-07T05:43:36;13.60;99.90
44223;DHT22;29895;48.804;9.386;2023-05-07T05:46:02;13.70;99.90
44223;DHT22;29895;48.804;9.386;2023-05-07T05:48:29;13.70;99.90
44223;DHT22;29895;48.804;9.386;2023-05-07T05:50:54;13.70;99.90
44223;DHT22;29895;48.804;9.386;2023-05-07T05:53:20;13.70;99.90
44223;DHT22;29895;48.804;9.386;2023-05-07T05:55:46;13.70;99.90
44223;DHT22;29895;48.804;9.386;2023-05-07T05:58:12;14.00;99.90
44223;DHT22;29895;48.804;9.386;2023-05-07T06:00:37;14.50;99.90
44223;DHT22;29895;48.804;9.386;2023-05-07T06:03:03;15.20;99.90
44223;DHT22;29895;48.804;9.386;2023-05-07T06:05:29;15.70;99.90
44223;DHT22;29895;48.804;9.386;2023-05-07T06:07:54;16.00;99.90
44223;DHT22;29895;48.804;9.386;2023-05-07T06:10:20;16.10;99.90
44223;DHT22;29895;48.804;9.386;2023-05-07T06:12:46;16.10;99.90
44223;DHT22;29895;48.804;9.386;2023-05-07T06:15:12;16.40;99.90
44223;DHT22;29895;48.804;9.386;2023-05-07T06:17:37;16.90;99.90
44223;DHT22;29895;48.804;9.386;2023-05-07T06:20:03;17.50;99.90
44223;DHT22;29895;48.804;9.386;2023-05-07T06:22:29;17.90;99.90
44223;DHT22;29895;48.804;9.386;2023-05-07T06:24:55;18.10;99.90
44223;DHT22;29895;48.804;9.386;2023-05-07T06:27:20;18.40;99.90
44223;DHT22;29895;48.804;9.386;2023-05-07T06:29:48;18.30;99.90
44223;DHT22;29895;48.804;9.386;2023-05-07T06:32:14;18.30;99.90
44223;DHT22;29895;48.804;9.386;2023-05-07T06:34:40;18.20;99.90
44223;DHT22;29895;48.804;9.386;2023-05-07T06:37:06;18.10;99.90
44223;DHT22;29895;48.804;9.386;2023-05-07T06:39:32;18.10;99.90
44223;DHT22;29895;48.804;9.386;2023-05-07T06:41:59;18.20;99.90
44223;DHT22;29895;48.804;9.386;2023-05-07T06:44:25;18.30;99.90
44223;DHT22;29895;48.804;9.386;2023-05-07T06:46:50;18.60;99.90
44223;DHT22;29895;48.804;9.386;2023-05-07T06:49:16;18.90;99.90
44223;DHT22;29895;48.804;9.386;2023-05-07T06:51:42;19.10;99.90
44223;DHT22;29895;48.804;9.386;2023-05-07T06:54:07;19.20;99.90
44223;DHT22;29895;48.804;9.386;2023-05-07T06:56:33;19.30;99.90
44223;DHT22;29895;48.804;9.386;2023-05-07T06:59:00;19.80;99.90
44223;DHT22;29895;48.804;9.386;2023-05-07T07:01:26;20.00;99.90
44223;DHT22;29895;48.804;9.386;2023-05-07T07:03:51;20.00;99.90
44223;DHT22;29895;48.804;9.386;2023-05-07T07:06:17;20.40;99.90
44223;DHT22;29895;48.804;9.386;2023-05-07T07:08:43;20.80;99.90
44223;DHT22;29895;48.804;9.386;2023-05-07T07:11:09;21.30;99.90
44223;DHT22;29895;48.804;9.386;2023-05-07T07:13:35;21.60;99.90
44223;DHT22;29895;48.804;9.386;2023-05-07T07:16:01;21.80;99.90
44223;DHT22;29895;48.804;9.386;2023-05-07T07:18:27;22.10;99.90
44223;DHT22;29895;48.804;9.386;2023-05-07T07:20:52;22.60;99.90
44223;DHT22;29895;48.804;9.386;2023-05-07T07:23:18;22.60;99.90
44223;DHT22;29895;48.804;9.386;2023-05-07T07:25:44;22.00;99.90
44223;DHT22;29895;48.804;9.386;2023-05-07T07:28:10;21.50;99.90
44223;DHT22;29895;48.804;9.386;2023-05-07T07:30:36;20.90;99.90
44223;DHT22;29895;48.804;9.386;2023-05-07T07:33:02;20.70;99.90
44223;DHT22;29895;48.804;9.386;2023-05-07T07:35:37;20.40;99.90
44223;DHT22;29895;48.804;9.386;2023-05-07T07:38:03;20.10;99.90
44223;DHT22;29895;48.804;9.386;2023-05-07T07:40:28;20.00;99.90
44223;DHT22;29895;48.804;9.386;2023-05-07T07:42:54;20.40;99.90
44223;DHT22;29895;48.804;9.386;2023-05-07T07:45:20;20.60;99.90
44223;DHT22;29895;48.804;9.386;2023-05-07T07:47:46;20.60;99.90
44223;DHT22;29895;48.804;9.386;2023-05-07T07:50:12;20.80;99.90
44223;DHT22;29895;48.804;9.386;2023-05-07T07:52:37;20.80;99.90
44223;DHT22;29895;48.804;9.386;2023-05-07T07:55:04;21.30;99.90
44223;DHT22;29895;48.804;9.386;2023-05-07T07:57:30;21.80;99.90
44223;DHT22;29895;48.804;9.386;2023-05-07T07:59:56;22.00;99.90
44223;DHT22;29895;48.804;9.386;2023-05-07T08:02:21;22.30;99.90
44223;DHT22;29895;48.804;9.386;2023-05-07T08:04:47;22.60;99.90
44223;DHT22;29895;48.804;9.386;2023-05-07T08:07:13;22.60;99.90
44223;DHT22;29895;48.804;9.386;2023-05-07T08:09:39;22.40;99.90
44223;DHT22;29895;48.804;9.386;2023-05-07T08:12:06;22.10;99.90
44223;DHT22;29895;48.804;9.386;2023-05-07T08:14:33;22.10;99.90
44223;DHT22;29895;48.804;9.386;2023-05-07T08:16:59;21.80;99.90
44223;DHT22;29895;48.804;9.386;2023-05-07T08:19:25;22.00;99.90
44223;DHT22;29895;48.804;9.386;2023-05-07T08:21:50;22.30;99.90
44223;DHT22;29895;48.804;9.386;2023-05-07T08:24:16;23.30;99.90
44223;DHT22;29895;48.804;9.386;2023-05-07T08:26:43;24.10;99.90
44223;DHT22;29895;48.804;9.386;2023-05-07T08:29:09;24.60;99.90
44223;DHT22;29895;48.804;9.386;2023-05-07T08:31:35;25.10;99.20
44223;DHT22;29895;48.804;9.386;2023-05-07T08:34:01;25.50;98.10
44223;DHT22;29895;48.804;9.386;2023-05-07T08:36:27;25.80;97.60
44223;DHT22;29895;48.804;9.386;2023-05-07T08:38:54;25.70;97.40
44223;DHT22;29895;48.804;9.386;2023-05-07T08:41:20;24.60;98.60
44223;DHT22;29895;48.804;9.386;2023-05-07T08:43:49;24.70;98.70
44223;DHT22;29895;48.804;9.386;2023-05-07T08:46:20;25.10;97.50
44223;DHT22;29895;48.804;9.386;2023-05-07T08:48:50;25.60;97.40
44223;DHT22;29895;48.804;9.386;2023-05-07T08:51:18;26.10;96.80
44223;DHT22;29895;48.804;9.386;2023-05-07T08:53:45;26.50;96.50
44223;DHT22;29895;48.804;9.386;2023-05-07T08:56:12;26.40;96.10
44223;DHT22;29895;48.804;9.386;2023-05-07T08:58:38;26.20;95.80
44223;DHT22;29895;48.804;9.386;2023-05-07T09:01:07;25.90;96.10
44223;DHT22;29895;48.804;9.386;2023-05-07T09:03:34;25.50;96.60
44223;DHT22;29895;48.804;9.386;2023-05-07T09:05:59;25.40;97.00
44223;DHT22;29895;48.804;9.386;2023-05-07T09:08:27;25.40;97.20
44223;DHT22;29895;48.804;9.386;2023-05-07T09:10:53;25.80;97.30
44223;DHT22;29895;48.804;9.386;2023-05-07T09:13:19;26.10;96.60
44223;DHT22;29895;48.804;9.386;2023-05-07T09:15:44;25.80;96.50
44223;DHT22;29895;48.804;9.386;2023-05-07T09:18:10;25.20;96.80
44223;DHT22;29895;48.804;9.386;2023-05-07T09:20:39;25.40;96.60
44223;DHT22;29895;48.804;9.386;2023-05-07T09:23:08;25.70;96.90
44223;DHT22;29895;48.804;9.386;2023-05-07T09:25:35;25.50;96.50
44223;DHT22;29895;48.804;9.386;2023-05-07T09:28:02;25.70;96.50
44223;DHT22;29895;48.804;9.386;2023-05-07T09:30:31;25.50;96.40
44223;DHT22;29895;48.804;9.386;2023-05-07T09:33:02;25.40;96.90
44223;DHT22;29895;48.804;9.386;2023-05-07T09:35:29;25.60;96.10
44223;DHT22;29895;48.804;9.386;2023-05-07T09:37:56;25.70;96.20
44223;DHT22;29895;48.804;9.386;2023-05-07T09:40:23;26.10;96.10
44223;DHT22;29895;48.804;9.386;2023-05-07T09:42:49;25.80;96.10
44223;DHT22;29895;48.804;9.386;2023-05-07T09:45:35;25.40;96.50
44223;DHT22;29895;48.804;9.386;2023-05-07T09:48:05;25.00;97.10
44223;DHT22;29895;48.804;9.386;2023-05-07T09:50:43;25.10;96.90
44223;DHT22;29895;48.804;9.386;2023-05-07T09:53:10;25.50;96.50
44223;DHT22;29895;48.804;9.386;2023-05-07T09:55:37;26.30;95.80
44223;DHT22;29895;48.804;9.386;2023-05-07T09:58:04;27.00;94.70
44223;DHT22;29895;48.804;9.386;2023-05-07T10:00:32;27.20;93.80
44223;DHT22;29895;48.804;9.386;2023-05-07T10:02:58;27.20;93.80
44223;DHT22;29895;48.804;9.386;2023-05-07T10:05:25;27.20;93.40
44223;DHT22;29895;48.804;9.386;2023-05-07T10:07:53;27.40;93.50
44223;DHT22;29895;48.804;9.386;2023-05-07T10:10:19;27.60;93.60
44223;DHT22;29895;48.804;9.386;2023-05-07T10:12:45;27.80;92.90
44223;DHT22;29895;48.804;9.386;2023-05-07T10:15:12;27.80;92.90
44223;DHT22;29895;48.804;9.386;2023-05-07T10:17:39;27.80;92.40
44223;DHT22;29895;48.804;9.386;2023-05-07T10:20:06;27.70;92.60
44223;DHT22;29895;48.804;9.386;2023-05-07T10:22:38;27.60;92.80
44223;DHT22;29895;48.804;9.386;2023-05-07T10:25:08;27.10;93.00
44223;DHT22;29895;48.804;9.386;2023-05-07T10:27:39;26.70;93.20
44223;DHT22;29895;48.804;9.386;2023-05-07T10:32:58;26.60;93.10
44223;DHT22;29895;48.804;9.386;2023-05-07T10:35:32;26.60;93.30
44223;DHT22;29895;48.804;9.386;2023-05-07T10:38:02;26.70;93.20
44223;DHT22;29895;48.804;9.386;2023-05-07T10:40:28;27.00;92.60
44223;DHT22;29895;48.804;9.386;2023-05-07T10:43:04;27.00;92.20
44223;DHT22;29895;48.804;9.386;2023-05-07T10:45:33;26.60;93.00
44223;DHT22;29895;48.804;9.386;2023-05-07T10:48:14;26.10;92.80
44223;DHT22;29895;48.804;9.386;2023-05-07T10:50:44;25.20;94.40
44223;DHT22;29895;48.804;9.386;2023-05-07T10:55:50;25.60;93.50
44223;DHT22;29895;48.804;9.386;2023-05-07T11:01:00;25.30;93.30
44223;DHT22;29895;48.804;9.386;2023-05-07T11:03:27;24.90;93.80
44223;DHT22;29895;48.804;9.386;2023-05-07T11:06:14;24.40;94.50
44223;DHT22;29895;48.804;9.386;2023-05-07T11:11:18;24.20;94.60
44223;DHT22;29895;48.804;9.386;2023-05-07T11:16:24;24.20;95.40
44223;DHT22;29895;48.804;9.386;2023-05-07T11:18:52;24.60;95.10
44223;DHT22;29895;48.804;9.386;2023-05-07T11:21:39;24.90;94.20
44223;DHT22;29895;48.804;9.386;2023-05-07T11:24:09;25.00;94.20
44223;DHT22;29895;48.804;9.386;2023-05-07T11:26:46;24.70;94.30
44223;DHT22;29895;48.804;9.386;2023-05-07T11:29:14;24.30;94.40
44223;DHT22;29895;48.804;9.386;2023-05-07T11:31:41;24.00;95.00
44223;DHT22;29895;48.804;9.386;2023-05-07T11:34:06;24.10;94.60
44223;DHT22;29895;48.804;9.386;2023-05-07T11:36:33;24.10;94.80
44223;DHT22;29895;48.804;9.386;2023-05-07T11:38:59;24.10;94.60
44223;DHT22;29895;48.804;9.386;2023-05-07T11:41:35;24.10;95.50
44223;DHT22;29895;48.804;9.386;2023-05-07T11:44:02;23.90;98.70
44223;DHT22;29895;48.804;9.386;2023-05-07T11:46:28;23.50;98.60
44223;DHT22;29895;48.804;9.386;2023-05-07T11:48:55;22.60;99.90
44223;DHT22;29895;48.804;9.386;2023-05-07T11:51:23;21.90;99.90
44223;DHT22;29895;48.804;9.386;2023-05-07T11:53:49;21.40;99.90
44223;DHT22;29895;48.804;9.386;2023-05-07T11:56:17;21.10;99.90
44223;DHT22;29895;48.804;9.386;2023-05-07T11:58:44;20.90;99.90
44223;DHT22;29895;48.804;9.386;2023-05-07T12:01:12;20.90;99.90
44223;DHT22;29895;48.804;9.386;2023-05-07T12:03:41;20.80;99.90
44223;DHT22;29895;48.804;9.386;2023-05-07T12:06:12;20.70;99.90
44223;DHT22;29895;48.804;9.386;2023-05-07T12:08:39;20.70;99.90
44223;DHT22;29895;48.804;9.386;2023-05-07T12:11:10;20.80;99.90
44223;DHT22;29895;48.804;9.386;2023-05-07T12:13:37;21.00;99.90
44223;DHT22;29895;48.804;9.386;2023-05-07T12:16:04;21.30;99.90
44223;DHT22;29895;48.804;9.386;2023-05-07T12:18:31;21.50;99.90
44223;DHT22;29895;48.804;9.386;2023-05-07T12:20:57;21.70;99.90
44223;DHT22;29895;48.804;9.386;2023-05-07T12:23:23;21.80;99.90
44223;DHT22;29895;48.804;9.386;2023-05-07T12:25:49;21.70;99.90
44223;DHT22;29895;48.804;9.386;2023-05-07T12:28:16;21.60;99.90
44223;DHT22;29895;48.804;9.386;2023-05-07T12:30:46;21.50;99.90
44223;DHT22;29895;48.804;9.386;2023-05-07T12:33:17;21.50;99.90
44223;DHT22;29895;48.804;9.386;2023-05-07T12:35:44;21.50;99.90
44223;DHT22;29895;48.804;9.386;2023-05-07T12:38:15;21.40;99.90
44223;DHT22;29895;48.804;9.386;2023-05-07T12:40:54;21.50;99.90
44223;DHT22;29895;48.804;9.386;2023-05-07T12:43:24;21.50;99.90
44223;DHT22;29895;48.804;9.386;2023-05-07T12:45:51;21.50;99.90
44223;DHT22;29895;48.804;9.386;2023-05-07T12:48:19;21.40;99.90
44223;DHT22;29895;48.804;9.386;2023-05-07T12:50:48;21.30;99.90
44223;DHT22;29895;48.804;9.386;2023-05-07T12:53:14;20.90;99.90
44223;DHT22;29895;48.804;9.386;2023-05-07T12:55:45;20.20;99.90
44223;DHT22;29895;48.804;9.386;2023-05-07T12:58:18;19.30;99.90
44223;DHT22;29895;48.804;9.386;2023-05-07T13:00:44;18.70;99.90
44223;DHT22;29895;48.804;9.386;2023-05-07T13:03:15;18.40;99.90
44223;DHT22;29895;48.804;9.386;2023-05-07T13:05:46;18.10;99.90
44223;DHT22;29895;48.804;9.386;2023-05-07T13:08:11;17.70;99.90
44223;DHT22;29895;48.804;9.386;2023-05-07T13:10:37;17.60;99.90
44223;DHT22;29895;48.804;9.386;2023-05-07T13:13:03;17.50;99.90
44223;DHT22;29895;48.804;9.386;2023-05-07T13:15:28;17.30;99.90
44223;DHT22;29895;48.804;9.386;2023-05-07T13:17:54;17.10;99.90
44223;DHT22;29895;48.804;9.386;2023-05-07T13:20:20;17.00;99.90
44223;DHT22;29895;48.804;9.386;2023-05-07T13:22:46;16.90;99.90
44223;DHT22;29895;48.804;9.386;2023-05-07T13:25:11;16.90;99.90
44223;DHT22;29895;48.804;9.386;2023-05-07T13:27:37;16.90;99.90
44223;DHT22;29895;48.804;9.386;2023-05-07T13:30:04;16.70;99.90
44223;DHT22;29895;48.804;9.386;2023-05-07T13:32:32;16.50;99.90
44223;DHT22;29895;48.804;9.386;2023-05-07T13:34:57;16.30;99.90
44223;DHT22;29895;48.804;9.386;2023-05-07T13:37:23;16.10;99.90
44223;DHT22;29895;48.804;9.386;2023-05-07T13:39:49;15.80;99.90
44223;DHT22;29895;48.804;9.386;2023-05-07T13:42:14;15.70;99.90
44223;DHT22;29895;48.804;9.386;2023-05-07T13:44:42;15.90;99.90
44223;DHT22;29895;48.804;9.386;2023-05-07T13:47:10;15.70;99.90
44223;DHT22;29895;48.804;9.386;2023-05-07T13:49:36;15.70;99.90
44223;DHT22;29895;48.804;9.386;2023-05-07T13:52:03;15.70;99.90
44223;DHT22;29895;48.804;9.386;2023-05-07T13:54:28;15.60;99.90
44223;DHT22;29895;48.804;9.386;2023-05-07T13:56:54;15.60;99.90
44223;DHT22;29895;48.804;9.386;2023-05-07T13:59:20;15.60;99.90
44223;DHT22;29895;48.804;9.386;2023-05-07T14:01:45;15.60;99.90
44223;DHT22;29895;48.804;9.386;2023-05-07T14:04:11;15.60;99.90
44223;DHT22;29895;48.804;9.386;2023-05-07T14:06:37;15.60;99.90
44223;DHT22;29895;48.804;9.386;2023-05-07T14:09:03;15.60;99.90
44223;DHT22;29895;48.804;9.386;2023-05-07T14:11:29;15.70;99.90
44223;DHT22;29895;48.804;9.386;2023-05-07T14:13:55;15.70;99.90
44223;DHT22;29895;48.804;9.386;2023-05-07T14:16:22;15.70;99.90
44223;DHT22;29895;48.804;9.386;2023-05-07T14:18:47;15.70;99.90
44223;DHT22;29895;48.804;9.386;2023-05-07T14:21:13;15.70;99.90
44223;DHT22;29895;48.804;9.386;2023-05-07T14:23:39;15.80;99.90
44223;DHT22;29895;48.804;9.386;2023-05-07T14:26:05;15.90;99.90
44223;DHT22;29895;48.804;9.386;2023-05-07T14:28:30;15.90;99.90
44223;DHT22;29895;48.804;9.386;2023-05-07T14:30:56;15.90;99.90
44223;DHT22;29895;48.804;9.386;2023-05-07T14:33:22;15.80;99.90
44223;DHT22;29895;48.804;9.386;2023-05-07T14:35:47;15.70;99.90
44223;DHT22;29895;48.804;9.386;2023-05-07T14:38:14;15.70;99.90
44223;DHT22;29895;48.804;9.386;2023-05-07T14:40:41;15.60;99.90
44223;DHT22;29895;48.804;9.386;2023-05-07T14:43:06;15.60;99.90
44223;DHT22;29895;48.804;9.386;2023-05-07T14:45:32;15.60;99.90
44223;DHT22;29895;48.804;9.386;2023-05-07T14:47:57;15.50;99.90
44223;DHT22;29895;48.804;9.386;2023-05-07T14:50:23;15.50;99.90
44223;DHT22;29895;48.804;9.386;2023-05-07T14:52:49;15.50;99.90
44223;DHT22;29895;48.804;9.386;2023-05-07T14:55:14;15.60;99.90
44223;DHT22;29895;48.804;9.386;2023-05-07T14:57:41;15.60;99.90
44223;DHT22;29895;48.804;9.386;2023-05-07T15:00:07;15.70;99.90
44223;DHT22;29895;48.804;9.386;2023-05-07T15:02:34;15.70;99.90
44223;DHT22;29895;48.804;9.386;2023-05-07T15:04:59;15.70;99.90
44223;DHT22;29895;48.804;9.386;2023-05-07T15:07:25;15.70;99.90
44223;DHT22;29895;48.804;9.386;2023-05-07T15:09:51;15.70;99.90
44223;DHT22;29895;48.804;9.386;2023-05-07T15:12:17;15.70;99.90
44223;DHT22;29895;48.804;9.386;2023-05-07T15:14:42;15.70;99.90
44223;DHT22;29895;48.804;9.386;2023-05-07T15:17:08;15.60;99.90
44223;DHT22;29895;48.804;9.386;2023-05-07T15:19:34;15.60;99.90
44223;DHT22;29895;48.804;9.386;2023-05-07T15:22:00;15.60;99.90
44223;DHT22;29895;48.804;9.386;2023-05-07T15:24:31;15.70;99.90
44223;DHT22;29895;48.804;9.386;2023-05-07T15:26:57;15.70;99.90
44223;DHT22;29895;48.804;9.386;2023-05-07T15:29:23;15.70;99.90
44223;DHT22;29895;48.804;9.386;2023-05-07T15:31:50;15.70;99.90
44223;DHT22;29895;48.804;9.386;2023-05-07T15:34:17;15.80;99.90
44223;DHT22;29895;48.804;9.386;2023-05-07T15:36:43;15.90;99.90
44223;DHT22;29895;48.804;9.386;2023-05-07T15:39:08;16.00;99.90
44223;DHT22;29895;48.804;9.386;2023-05-07T15:41:35;16.00;99.90